Time;durP1;ratioP1;P1;durP2;ratioP2;P2;SDS_P1;SDS_P2;PMS_P1;PMS_P2;Temp;Humidity;BMP_temperature;BMP_pressure;BME280_temperature;BME280_humidity;BME280_pressure;Samples;Min_cycle;Max_cycle;Signal;HPM_P1;HPM_P2
2022/09/21 00:02:17;;;;;;;;;;;20.20;87.80;;;;;;5068225;28;20011;-61
2022/09/21 00:04:43;;;;;;;;;;;20.10;87.80;;;;;;5072230;28;20015;-61
2022/09/21 00:07:08;;;;;;;;;;;20.20;87.70;;;;;;5074193;28;19970;-61
2022/09/21 00:09:34;;;;;;;;;;;20.20;87.80;;;;;;5072408;28;19924;-61
2022/09/21 00:12:01;;;;;;;;;;;20.10;87.70;;;;;;5060165;28;19925;-61
2022/09/21 00:14:27;;;;;;;;;;;20.20;87.70;;;;;;5062982;28;19931;-61
2022/09/21 00:16:53;;;;;;;;;;;20.40;87.90;;;;;;5063446;28;19924;-61
2022/09/21 00:19:18;;;;;;;;;;;20.20;87.80;;;;;;5062008;28;19993;-61
2022/09/21 00:21:44;;;;;;;;;;;20.20;87.80;;;;;;5071968;28;19981;-61
2022/09/21 00:24:11;;;;;;;;;;;20.30;87.80;;;;;;5069383;28;19936;-60
2022/09/21 00:26:36;;;;;;;;;;;20.20;87.80;;;;;;5060959;28;19924;-60
2022/09/21 00:29:02;;;;;;;;;;;20.00;87.70;;;;;;5064170;28;20351;-61
2022/09/21 00:31:29;;;;;;;;;;;20.20;87.80;;;;;;5062340;28;20011;-61
2022/09/21 00:33:56;;;;;;;;;;;20.00;87.60;;;;;;5069248;28;20416;-60
2022/09/21 00:36:22;;;;;;;;;;;20.10;87.80;;;;;;5071221;28;20289;-61
2022/09/21 00:38:49;;;;;;;;;;;20.20;87.80;;;;;;5074118;28;19970;-61
2022/09/21 00:41:15;;;;;;;;;;;20.10;87.80;;;;;;5071455;28;20015;-61
2022/09/21 00:44:04;;;;;;;;;;;19.90;87.60;;;;;;5071884;28;20026;-61
2022/09/21 00:46:30;;;;;;;;;;;20.00;87.70;;;;;;5060218;28;19924;-61
2022/09/21 00:48:56;;;;;;;;;;;20.20;87.80;;;;;;5062991;28;19924;-60
2022/09/21 00:51:21;;;;;;;;;;;20.10;87.80;;;;;;5072570;28;20295;-61
2022/09/21 00:53:47;;;;;;;;;;;20.20;87.80;;;;;;5073540;28;19925;-61
2022/09/21 00:56:13;;;;;;;;;;;20.00;87.70;;;;;;5071480;28;19947;-61
2022/09/21 00:58:43;;;;;;;;;;;20.10;87.80;;;;;;5071900;28;20015;-60
2022/09/21 01:01:09;;;;;;;;;;;20.00;87.70;;;;;;5072051;28;20007;-61
2022/09/21 01:03:35;;;;;;;;;;;20.00;87.70;;;;;;5070366;28;19994;-61
2022/09/21 01:06:01;;;;;;;;;;;20.10;87.70;;;;;;5069821;28;19925;-62
2022/09/21 01:08:27;;;;;;;;;;;20.00;87.60;;;;;;5071392;28;19970;-61
2022/09/21 01:11:02;;;;;;;;;;;20.00;87.60;;;;;;5071770;28;19920;-61
2022/09/21 01:13:50;;;;;;;;;;;20.00;87.60;;;;;;5071702;28;20292;-61
2022/09/21 01:16:24;;;;;;;;;;;20.20;87.80;;;;;;5070706;28;20425;-62
2022/09/21 01:18:56;;;;;;;;;;;20.10;87.70;;;;;;5068861;28;19925;-61
2022/09/21 01:21:25;;;;;;;;;;;20.10;87.70;;;;;;5071429;28;19963;-61
2022/09/21 01:24:10;;;;;;;;;;;20.00;87.70;;;;;;5070614;28;19924;-62
2022/09/21 01:26:53;;;;;;;;;;;20.00;87.60;;;;;;5069150;28;19978;-61
2022/09/21 01:29:19;;;;;;;;;;;;;;;;;;5053165;28;19979;-64
2022/09/21 01:31:53;;;;;;;;;;;20.00;87.70;;;;;;5073365;28;19986;-61
2022/09/21 01:34:22;;;;;;;;;;;20.00;87.70;;;;;;5053238;28;20402;-61
2022/09/21 01:36:48;;;;;;;;;;;20.00;87.70;;;;;;5072654;28;19924;-61
2022/09/21 01:39:14;;;;;;;;;;;20.00;87.70;;;;;;5072332;28;20397;-61
2022/09/21 01:41:40;;;;;;;;;;;20.10;87.80;;;;;;5069490;28;19928;-61
2022/09/21 01:44:26;;;;;;;;;;;20.00;87.70;;;;;;5069826;28;19929;-62
2022/09/21 01:46:52;;;;;;;;;;;19.90;87.70;;;;;;5070145;28;19924;-62
2022/09/21 01:49:22;;;;;;;;;;;20.20;87.90;;;;;;5069800;28;19931;-62
2022/09/21 01:51:50;;;;;;;;;;;20.10;87.90;;;;;;5073203;28;19951;-61
2022/09/21 01:54:27;;;;;;;;;;;20.00;87.80;;;;;;5075368;28;19924;-61
2022/09/21 01:56:54;;;;;;;;;;;19.90;87.60;;;;;;5072920;28;19975;-61
2022/09/21 01:59:38;;;;;;;;;;;19.90;87.60;;;;;;5073811;28;19971;-61
2022/09/21 02:02:07;;;;;;;;;;;20.00;87.80;;;;;;5074490;28;19928;-62
2022/09/21 02:04:34;;;;;;;;;;;20.00;87.70;;;;;;5075635;28;19931;-60
2022/09/21 02:06:59;;;;;;;;;;;20.00;87.80;;;;;;5076508;28;19924;-61
2022/09/21 02:09:25;;;;;;;;;;;19.90;87.70;;;;;;5072722;28;20404;-61
2022/09/21 02:11:50;;;;;;;;;;;20.00;87.60;;;;;;5066870;28;20011;-67
2022/09/21 02:14:17;;;;;;;;;;;19.80;87.50;;;;;;5066946;28;19959;-67
2022/09/21 02:16:44;;;;;;;;;;;19.90;87.50;;;;;;5073021;28;20386;-61
2022/09/21 02:19:14;;;;;;;;;;;20.20;87.80;;;;;;5064336;28;19925;-62
2022/09/21 02:21:43;;;;;;;;;;;19.70;87.50;;;;;;5070859;28;19975;-68
2022/09/21 02:24:42;;;;;;;;;;;19.80;87.50;;;;;;5072809;28;19924;-67
2022/09/21 02:27:26;;;;;;;;;;;20.00;87.60;;;;;;5010247;28;19925;-61
2022/09/21 02:30:03;;;;;;;;;;;19.90;87.60;;;;;;5013972;28;20004;-61
2022/09/21 02:32:36;;;;;;;;;;;19.90;87.50;;;;;;4996563;28;19921;-62
2022/09/21 02:35:05;;;;;;;;;;;20.00;87.60;;;;;;4997983;28;19926;-63
2022/09/21 02:37:31;;;;;;;;;;;;;;;;;;5004710;28;19921;-63
2022/09/21 02:39:58;;;;;;;;;;;19.80;87.50;;;;;;4998091;28;19933;-61
2022/09/21 02:42:26;;;;;;;;;;;20.00;87.60;;;;;;4995466;28;20415;-61
2022/09/21 02:45:18;;;;;;;;;;;20.00;87.60;;;;;;4996372;28;19926;-61
2022/09/21 02:47:51;;;;;;;;;;;19.80;87.60;;;;;;5011025;28;19929;-61
2022/09/21 02:50:22;;;;;;;;;;;19.90;87.60;;;;;;4996474;28;19933;-61
2022/09/21 02:52:47;;;;;;;;;;;19.60;87.40;;;;;;5013031;28;19925;-61
2022/09/21 02:55:13;;;;;;;;;;;;;;;;;;5010197;28;19940;-62
2022/09/21 02:57:39;;;;;;;;;;;19.90;87.50;;;;;;5009147;28;19926;-62
2022/09/21 03:00:05;;;;;;;;;;;19.80;87.50;;;;;;5004161;28;20015;-61
2022/09/21 03:02:35;;;;;;;;;;;19.80;87.50;;;;;;5024190;28;19925;-61
2022/09/21 03:05:00;;;;;;;;;;;19.90;87.50;;;;;;5058433;28;19931;-61
2022/09/21 03:07:26;;;;;;;;;;;19.90;87.60;;;;;;5063686;28;19924;-61
2022/09/21 03:09:51;;;;;;;;;;;19.70;87.50;;;;;;5074750;28;19920;-61
2022/09/21 03:12:17;;;;;;;;;;;19.60;87.40;;;;;;5063832;28;19931;-62
2022/09/21 03:14:43;;;;;;;;;;;19.70;87.40;;;;;;5059197;28;20011;-62
2022/09/21 03:17:09;;;;;;;;;;;;;;;;;;5074263;28;19926;-63
2022/09/21 03:19:34;;;;;;;;;;;19.90;87.50;;;;;;5074505;28;19925;-61
2022/09/21 03:22:00;;;;;;;;;;;19.80;87.50;;;;;;5074461;28;20289;-61
2022/09/21 03:27:10;;;;;;;;;;;19.60;87.40;;;;;;5063957;28;19924;-67
2022/09/21 03:29:35;;;;;;;;;;;19.80;87.50;;;;;;5073060;28;19931;-68
2022/09/21 03:32:01;;;;;;;;;;;19.40;87.30;;;;;;5074296;28;19928;-61
2022/09/21 03:34:27;;;;;;;;;;;19.70;87.40;;;;;;5074195;28;20015;-62
2022/09/21 03:36:52;;;;;;;;;;;19.70;87.40;;;;;;5073207;28;19924;-61
2022/09/21 03:39:18;;;;;;;;;;;19.50;87.30;;;;;;5071573;28;19951;-61
2022/09/21 03:41:44;;;;;;;;;;;19.80;87.50;;;;;;5064406;28;19932;-60
2022/09/21 03:44:09;;;;;;;;;;;19.60;87.40;;;;;;5074099;28;19931;-61
2022/09/21 03:46:35;;;;;;;;;;;19.80;87.40;;;;;;5071181;28;20405;-61
2022/09/21 03:49:01;;;;;;;;;;;;;;;;;;5054357;28;20328;-62
2022/09/21 03:51:28;;;;;;;;;;;19.70;87.40;;;;;;5074703;28;20011;-61
2022/09/21 03:53:54;;;;;;;;;;;19.50;87.30;;;;;;5074381;28;19935;-61
2022/09/21 03:56:20;;;;;;;;;;;19.60;87.30;;;;;;5071547;28;20381;-61
2022/09/21 03:58:45;;;;;;;;;;;19.60;87.30;;;;;;5069204;28;19931;-61
2022/09/21 04:01:11;;;;;;;;;;;19.90;87.40;;;;;;5070848;28;19928;-61
2022/09/21 04:03:37;;;;;;;;;;;19.80;87.40;;;;;;5072267;28;19931;-61
2022/09/21 04:06:09;;;;;;;;;;;19.60;87.30;;;;;;5072943;28;19978;-61
2022/09/21 04:08:35;;;;;;;;;;;19.90;87.40;;;;;;5071720;28;19929;-61
2022/09/21 04:11:02;;;;;;;;;;;19.70;87.30;;;;;;5071632;28;20009;-61
2022/09/21 04:13:27;;;;;;;;;;;19.60;87.20;;;;;;5070932;28;19928;-68
2022/09/21 04:15:53;;;;;;;;;;;19.50;87.10;;;;;;5071940;28;20416;-62
2022/09/21 04:18:19;;;;;;;;;;;;;;;;;;5067955;28;20333;-68
2022/09/21 04:20:44;;;;;;;;;;;19.50;87.20;;;;;;5072026;28;19925;-68
2022/09/21 04:23:10;;;;;;;;;;;;;;;;;;5073231;28;19946;-61
2022/09/21 04:25:36;;;;;;;;;;;19.60;87.40;;;;;;5073354;28;20285;-61
2022/09/21 04:28:02;;;;;;;;;;;19.50;87.30;;;;;;5060462;28;19925;-61
2022/09/21 04:30:28;;;;;;;;;;;19.90;87.40;;;;;;5066941;28;20019;-61
2022/09/21 04:32:53;;;;;;;;;;;19.70;87.40;;;;;;5073124;28;19929;-61
2022/09/21 04:35:19;;;;;;;;;;;19.60;87.30;;;;;;5070813;28;20027;-62
2022/09/21 04:37:45;;;;;;;;;;;19.60;87.30;;;;;;5074151;28;19932;-61
2022/09/21 04:40:11;;;;;;;;;;;19.80;87.40;;;;;;5066903;28;20272;-61
2022/09/21 04:42:36;;;;;;;;;;;19.70;87.30;;;;;;5065344;28;19986;-61
2022/09/21 04:45:02;;;;;;;;;;;19.50;87.20;;;;;;5071910;28;20007;-61
2022/09/21 04:47:28;;;;;;;;;;;19.60;87.30;;;;;;5074045;28;19939;-61
2022/09/21 04:49:54;;;;;;;;;;;19.50;87.20;;;;;;5069832;28;19930;-61
2022/09/21 04:52:20;;;;;;;;;;;19.70;87.40;;;;;;5054541;28;20011;-62
2022/09/21 04:54:46;;;;;;;;;;;19.30;87.10;;;;;;5063705;28;19931;-62
2022/09/21 04:57:11;;;;;;;;;;;19.60;87.30;;;;;;5073648;28;20328;-62
2022/09/21 04:59:37;;;;;;;;;;;19.60;87.30;;;;;;5073057;28;19967;-61
2022/09/21 05:02:03;;;;;;;;;;;19.30;87.10;;;;;;5070184;28;20439;-62
2022/09/21 05:04:28;;;;;;;;;;;19.50;87.20;;;;;;5072019;28;20371;-61
2022/09/21 05:06:56;;;;;;;;;;;19.50;87.30;;;;;;5073642;28;19928;-61
2022/09/21 05:12:06;;;;;;;;;;;19.60;87.30;;;;;;5070561;28;19986;-68
2022/09/21 05:14:31;;;;;;;;;;;19.60;87.30;;;;;;5071811;28;19976;-68
2022/09/21 05:16:57;;;;;;;;;;;;;;;;;;5071566;28;19924;-62
2022/09/21 05:19:23;;;;;;;;;;;19.60;87.20;;;;;;5057926;28;20310;-61
2022/09/21 05:21:49;;;;;;;;;;;19.50;87.20;;;;;;5071960;28;19932;-61
2022/09/21 05:24:14;;;;;;;;;;;19.20;87.10;;;;;;5075673;28;19935;-62
2022/09/21 05:26:40;;;;;;;;;;;19.50;87.30;;;;;;5075151;28;19924;-61
2022/09/21 05:29:06;;;;;;;;;;;19.80;87.50;;;;;;5066972;28;20306;-63
2022/09/21 05:31:36;;;;;;;;;;;19.50;87.30;;;;;;5075141;28;19990;-62
2022/09/21 05:34:11;;;;;;;;;;;19.50;87.20;;;;;;5073815;28;19924;-62
2022/09/21 05:36:46;;;;;;;;;;;19.60;87.20;;;;;;5075488;28;20294;-62
2022/09/21 05:39:12;;;;;;;;;;;19.50;87.20;;;;;;5075284;28;19928;-60
2022/09/21 05:41:38;;;;;;;;;;;19.50;87.10;;;;;;5074725;28;20006;-61
2022/09/21 05:44:04;;;;;;;;;;;19.30;87.00;;;;;;5074829;28;20412;-61
2022/09/21 05:46:37;;;;;;;;;;;19.40;87.00;;;;;;5069304;28;19933;-60
2022/09/21 05:49:04;;;;;;;;;;;19.50;87.00;;;;;;5070916;28;19932;-61
2022/09/21 05:51:36;;;;;;;;;;;19.50;86.90;;;;;;5062473;28;19968;-60
2022/09/21 05:54:02;;;;;;;;;;;19.80;87.10;;;;;;5057445;28;19924;-61
2022/09/21 05:56:27;;;;;;;;;;;19.70;86.90;;;;;;5066346;28;19920;-61
2022/09/21 05:58:53;;;;;;;;;;;19.80;87.00;;;;;;5076615;28;19955;-61
2022/09/21 06:01:18;;;;;;;;;;;19.80;86.70;;;;;;5073218;28;19939;-66
2022/09/21 06:03:47;;;;;;;;;;;19.70;86.80;;;;;;5074370;28;20007;-68
2022/09/21 06:06:13;;;;;;;;;;;19.80;86.80;;;;;;5063198;28;19929;-68
2022/09/21 06:08:38;;;;;;;;;;;19.80;86.80;;;;;;5074507;28;19978;-68
2022/09/21 06:11:04;;;;;;;;;;;19.70;86.70;;;;;;5073978;28;20026;-61
2022/09/21 06:13:30;;;;;;;;;;;19.90;86.70;;;;;;5074096;28;19963;-67
2022/09/21 06:15:55;;;;;;;;;;;19.80;86.80;;;;;;5063338;28;20298;-68
2022/09/21 06:18:21;;;;;;;;;;;20.00;86.80;;;;;;5072094;28;19936;-67
2022/09/21 06:20:47;;;;;;;;;;;20.10;86.10;;;;;;5073873;28;20015;-68
2022/09/21 06:23:13;;;;;;;;;;;20.00;86.50;;;;;;5073984;28;19985;-68
2022/09/21 06:25:38;;;;;;;;;;;19.70;86.10;;;;;;5073129;28;20289;-68
2022/09/21 06:28:04;;;;;;;;;;;20.10;86.10;;;;;;5072334;28;20055;-63
2022/09/21 06:30:33;;;;;;;;;;;20.40;86.10;;;;;;5071619;28;19924;-61
2022/09/21 06:33:00;;;;;;;;;;;20.50;85.90;;;;;;5064024;28;20003;-62
2022/09/21 06:35:26;;;;;;;;;;;20.50;85.80;;;;;;5074787;28;20449;-66
2022/09/21 06:37:52;;;;;;;;;;;20.80;85.60;;;;;;5075938;28;19932;-65
2022/09/21 06:40:17;;;;;;;;;;;20.80;85.40;;;;;;5071081;28;19924;-63
2022/09/21 06:42:43;;;;;;;;;;;21.00;85.10;;;;;;5058283;28;20409;-67
2022/09/21 06:45:09;;;;;;;;;;;21.20;84.90;;;;;;5054705;28;20012;-66
2022/09/21 06:47:34;;;;;;;;;;;21.40;84.80;;;;;;5058028;28;20275;-62
2022/09/21 06:50:00;;;;;;;;;;;21.30;84.50;;;;;;5070639;28;19928;-62
2022/09/21 06:52:26;;;;;;;;;;;21.40;84.50;;;;;;5075059;28;19928;-63
2022/09/21 06:54:51;;;;;;;;;;;21.70;84.40;;;;;;5075134;28;19947;-63
2022/09/21 06:57:17;;;;;;;;;;;21.60;84.20;;;;;;5074283;28;19924;-62
2022/09/21 06:59:42;;;;;;;;;;;21.60;83.90;;;;;;5073634;28;19964;-64
2022/09/21 07:02:08;;;;;;;;;;;21.80;83.90;;;;;;5073844;28;20349;-62
2022/09/21 07:04:34;;;;;;;;;;;22.00;83.80;;;;;;5075364;28;19928;-63
2022/09/21 07:07:00;;;;;;;;;;;22.00;83.70;;;;;;5075674;28;19925;-62
2022/09/21 07:09:25;;;;;;;;;;;22.00;84.00;;;;;;5075642;28;20382;-63
2022/09/21 07:11:51;;;;;;;;;;;22.00;83.40;;;;;;5072684;28;19931;-63
2022/09/21 07:14:17;;;;;;;;;;;22.30;83.90;;;;;;5074750;28;19925;-64
2022/09/21 07:16:43;;;;;;;;;;;22.30;83.30;;;;;;5075476;28;19928;-62
2022/09/21 07:19:08;;;;;;;;;;;22.40;83.10;;;;;;5072165;28;19924;-61
2022/09/21 07:21:34;;;;;;;;;;;22.40;82.80;;;;;;5074383;28;19928;-62
2022/09/21 07:24:00;;;;;;;;;;;22.40;82.70;;;;;;5075303;28;19982;-61
2022/09/21 07:26:25;;;;;;;;;;;22.60;82.80;;;;;;5074729;28;20019;-62
2022/09/21 07:28:51;;;;;;;;;;;22.60;82.60;;;;;;5071235;28;19933;-62
2022/09/21 07:31:17;;;;;;;;;;;22.90;82.80;;;;;;5075114;28;19924;-65
2022/09/21 07:33:43;;;;;;;;;;;22.90;82.70;;;;;;5075152;28;19928;-64
2022/09/21 07:36:11;;;;;;;;;;;23.00;82.20;;;;;;5074442;28;19988;-61
2022/09/21 07:38:41;;;;;;;;;;;22.80;81.90;;;;;;5070564;28;19928;-64
2022/09/21 07:41:07;;;;;;;;;;;23.40;82.10;;;;;;5062599;28;19931;-64
2022/09/21 07:43:33;;;;;;;;;;;23.30;82.40;;;;;;5073235;28;19924;-64
2022/09/21 07:46:00;;;;;;;;;;;23.10;82.10;;;;;;5070686;28;19925;-62
2022/09/21 07:48:27;;;;;;;;;;;23.40;81.80;;;;;;5054905;28;19925;-64
2022/09/21 07:50:53;;;;;;;;;;;23.10;80.40;;;;;;5059516;28;19932;-62
2022/09/21 07:53:19;;;;;;;;;;;23.20;79.80;;;;;;5054589;28;19928;-64
2022/09/21 07:55:45;;;;;;;;;;;23.30;79.30;;;;;;5058346;28;20377;-63
2022/09/21 08:00:54;;;;;;;;;;;23.00;78.30;;;;;;5070765;28;19932;-62
2022/09/21 08:03:20;;;;;;;;;;;23.10;79.20;;;;;;5072823;28;19924;-61
2022/09/21 08:05:46;;;;;;;;;;;23.30;78.70;;;;;;5073284;28;19925;-62
2022/09/21 08:08:11;;;;;;;;;;;23.50;78.90;;;;;;5074178;28;20408;-61
2022/09/21 08:10:38;;;;;;;;;;;23.20;78.50;;;;;;5072808;28;20015;-65
2022/09/21 08:13:03;;;;;;;;;;;23.30;79.50;;;;;;5066621;28;19939;-71
2022/09/21 08:15:29;;;;;;;;;;;23.00;78.30;;;;;;5071377;28;20335;-70
2022/09/21 08:17:57;;;;;;;;;;;23.20;78.40;;;;;;5073984;28;19973;-64
2022/09/21 08:20:23;;;;;;;;;;;23.10;78.10;;;;;;5073064;28;20336;-63
2022/09/21 08:22:48;;;;;;;;;;;23.20;78.20;;;;;;5068472;28;20051;-64
2022/09/21 08:25:14;;;;;;;;;;;23.00;77.70;;;;;;5073410;28;19948;-68
2022/09/21 08:27:41;;;;;;;;;;;23.40;78.10;;;;;;5073920;28;19932;-63
2022/09/21 08:30:07;;;;;;;;;;;23.20;78.00;;;;;;5074048;28;19931;-62
2022/09/21 08:32:33;;;;;;;;;;;23.20;77.50;;;;;;5070289;28;20015;-65
2022/09/21 08:34:58;;;;;;;;;;;23.30;77.80;;;;;;5074183;28;20049;-63
2022/09/21 08:37:24;;;;;;;;;;;22.90;78.00;;;;;;5074134;28;20032;-63
2022/09/21 08:39:49;;;;;;;;;;;23.20;77.80;;;;;;5074089;28;19931;-66
2022/09/21 08:42:18;;;;;;;;;;;23.10;77.90;;;;;;5071479;28;19947;-62
2022/09/21 08:44:44;;;;;;;;;;;23.30;76.90;;;;;;5069281;28;20294;-61
2022/09/21 08:47:27;;;;;;;;;;;23.30;77.80;;;;;;5073897;28;19928;-63
2022/09/21 08:49:54;;;;;;;;;;;23.50;76.90;;;;;;5072690;28;19935;-62
2022/09/21 08:52:20;;;;;;;;;;;23.40;78.00;;;;;;5073981;28;19925;-61
2022/09/21 08:54:45;;;;;;;;;;;23.20;77.70;;;;;;5072215;28;19925;-61
2022/09/21 08:57:11;;;;;;;;;;;23.00;77.40;;;;;;5075362;28;19979;-61
2022/09/21 08:59:38;;;;;;;;;;;23.10;77.90;;;;;;5077535;28;19971;-61
2022/09/21 09:02:19;;;;;;;;;;;23.20;77.70;;;;;;5077569;28;19924;-61
2022/09/21 09:05:09;;;;;;;;;;;23.00;76.30;;;;;;5077279;28;19933;-61
2022/09/21 09:07:40;;;;;;;;;;;23.30;76.50;;;;;;5016035;28;19933;-60
2022/09/21 09:10:12;;;;;;;;;;;23.10;76.20;;;;;;5014767;28;19925;-60
2022/09/21 09:12:44;;;;;;;;;;;23.10;77.50;;;;;;4994593;28;19964;-62
2022/09/21 09:15:10;;;;;;;;;;;23.00;76.00;;;;;;5015480;28;20386;-73
2022/09/21 09:17:42;;;;;;;;;;;23.10;77.20;;;;;;4999235;28;19929;-61
2022/09/21 09:20:29;;;;;;;;;;;23.00;76.00;;;;;;4998018;28;19942;-61
2022/09/21 09:23:05;;;;;;;;;;;22.80;77.30;;;;;;5015255;28;19959;-61
2022/09/21 09:25:36;;;;;;;;;;;22.80;76.00;;;;;;5015195;28;20429;-72
2022/09/21 09:28:04;;;;;;;;;;;22.90;77.50;;;;;;4994263;28;19926;-72
2022/09/21 09:30:30;;;;;;;;;;;22.80;77.40;;;;;;4992453;28;20426;-61
2022/09/21 09:33:07;;;;;;;;;;;22.80;77.80;;;;;;4998835;28;20457;-61
2022/09/21 09:35:40;;;;;;;;;;;22.80;76.70;;;;;;5028664;28;20016;-62
2022/09/21 09:38:10;;;;;;;;;;;22.50;76.60;;;;;;5015262;28;19932;-60
2022/09/21 09:40:56;;;;;;;;;;;22.80;76.80;;;;;;4998628;28;19979;-64
2022/09/21 09:43:31;;;;;;;;;;;22.60;77.80;;;;;;4986784;28;19925;-61
2022/09/21 09:46:18;;;;;;;;;;;22.50;76.90;;;;;;5075192;28;19980;-62
2022/09/21 09:48:48;;;;;;;;;;;22.70;77.00;;;;;;5076889;28;19982;-62
2022/09/21 09:51:14;;;;;;;;;;;22.50;78.30;;;;;;5075978;28;20012;-61
2022/09/21 09:53:40;;;;;;;;;;;22.60;78.00;;;;;;5073169;28;19964;-62
2022/09/21 09:56:06;;;;;;;;;;;22.60;77.90;;;;;;5070829;28;19925;-62
2022/09/21 09:58:51;;;;;;;;;;;22.70;78.40;;;;;;5089031;28;19925;-61
2022/09/21 10:01:35;;;;;;;;;;;22.40;77.10;;;;;;5057735;28;19924;-61
2022/09/21 10:04:05;;;;;;;;;;;22.50;77.00;;;;;;5074283;28;19925;-61
2022/09/21 10:06:31;;;;;;;;;;;22.60;77.00;;;;;;5076794;28;19925;-61
2022/09/21 10:08:56;;;;;;;;;;;22.30;77.90;;;;;;5075324;28;19932;-62
2022/09/21 10:11:22;;;;;;;;;;;22.60;78.00;;;;;;5076649;28;19924;-61
2022/09/21 10:13:48;;;;;;;;;;;22.40;77.90;;;;;;5065350;28;20378;-61
2022/09/21 10:16:20;;;;;;;;;;;22.70;77.70;;;;;;5071140;28;19928;-61
2022/09/21 10:18:49;;;;;;;;;;;22.50;76.40;;;;;;5064623;28;19928;-61
2022/09/21 10:21:15;;;;;;;;;;;22.40;76.40;;;;;;5056925;28;19924;-61
2022/09/21 10:23:41;;;;;;;;;;;22.40;77.10;;;;;;5056228;28;19921;-61
2022/09/21 10:26:07;;;;;;;;;;;22.40;76.10;;;;;;5065834;28;19924;-61
2022/09/21 10:28:33;;;;;;;;;;;22.30;76.50;;;;;;5075419;28;19972;-62
2022/09/21 10:31:20;;;;;;;;;;;22.40;76.30;;;;;;5075637;28;20271;-62
2022/09/21 10:33:53;;;;;;;;;;;22.60;75.20;;;;;;5074904;28;20400;-61
2022/09/21 10:36:24;;;;;;;;;;;22.40;73.70;;;;;;5071744;28;19932;-61
2022/09/21 10:38:49;;;;;;;;;;;22.40;73.10;;;;;;5073160;28;20302;-62
2022/09/21 10:41:15;;;;;;;;;;;22.40;74.30;;;;;;5073397;28;19977;-61
2022/09/21 10:43:41;;;;;;;;;;;22.10;74.50;;;;;;5076144;28;20385;-61
2022/09/21 10:46:07;;;;;;;;;;;22.40;74.90;;;;;;5074565;28;19925;-61
2022/09/21 10:48:33;;;;;;;;;;;22.20;74.70;;;;;;5074367;28;19928;-61
2022/09/21 10:50:58;;;;;;;;;;;22.60;74.40;;;;;;5073894;28;19924;-61
2022/09/21 10:53:28;;;;;;;;;;;22.30;74.70;;;;;;5074457;28;19974;-60
2022/09/21 10:55:53;;;;;;;;;;;22.20;73.80;;;;;;5072720;28;19971;-61
2022/09/21 10:58:19;;;;;;;;;;;22.30;75.00;;;;;;5073823;28;19920;-62
2022/09/21 11:00:47;;;;;;;;;;;22.10;74.60;;;;;;5073078;28;19971;-61
2022/09/21 11:03:31;;;;;;;;;;;22.40;74.20;;;;;;5075318;28;19970;-61
2022/09/21 11:06:01;;;;;;;;;;;22.30;73.20;;;;;;5075610;28;19925;-61
2022/09/21 11:08:26;;;;;;;;;;;22.50;74.70;;;;;;5073249;28;20409;-61
2022/09/21 11:10:55;;;;;;;;;;;22.20;74.70;;;;;;5074055;28;19928;-61
2022/09/21 11:13:32;;;;;;;;;;;22.20;73.90;;;;;;5073778;28;19924;-61
2022/09/21 11:16:14;;;;;;;;;;;22.50;74.10;;;;;;5074644;28;20377;-63
2022/09/21 11:18:40;;;;;;;;;;;22.40;75.20;;;;;;5070104;28;19925;-64
2022/09/21 11:21:35;;;;;;;;;;;22.50;75.50;;;;;;5072584;28;19931;-62
2022/09/21 11:24:02;;;;;;;;;;;22.40;74.40;;;;;;5011228;28;19925;-61
2022/09/21 11:26:27;;;;;;;;;;;22.60;75.20;;;;;;5013236;28;19964;-61
2022/09/21 11:29:05;;;;;;;;;;;22.90;75.30;;;;;;5011971;28;19969;-62
2022/09/21 11:31:43;;;;;;;;;;;23.00;74.20;;;;;;5011784;28;20008;-62
2022/09/21 11:34:27;;;;;;;;;;;22.80;74.10;;;;;;5012732;28;19931;-61
2022/09/21 11:37:11;;;;;;;;;;;23.00;74.30;;;;;;5012989;28;19932;-61
2022/09/21 11:39:55;;;;;;;;;;;23.00;74.10;;;;;;5006149;28;19969;-61
2022/09/21 11:42:24;;;;;;;;;;;22.80;73.70;;;;;;5009677;28;19925;-61
2022/09/21 11:44:51;;;;;;;;;;;22.90;73.50;;;;;;5008593;28;19965;-62
2022/09/21 11:47:24;;;;;;;;;;;22.90;74.50;;;;;;5012227;28;19980;-73
2022/09/21 11:50:02;;;;;;;;;;;23.00;73.20;;;;;;5009289;28;20040;-72
2022/09/21 11:52:46;;;;;;;;;;;22.90;73.20;;;;;;5019830;28;19984;-73
2022/09/21 11:55:31;;;;;;;;;;;23.30;72.30;;;;;;5018374;28;20019;-66
2022/09/21 11:58:00;;;;;;;;;;;23.00;72.20;;;;;;5029643;28;20276;-66
2022/09/21 12:00:26;;;;;;;;;;;23.10;73.70;;;;;;5042508;28;20401;-61
2022/09/21 12:03:30;;;;;;;;;;;23.10;73.70;;;;;;5071274;28;19924;-61
2022/09/21 12:06:05;;;;;;;;;;;23.10;72.50;;;;;;5015806;28;19929;-62
2022/09/21 12:08:51;;;;;;;;;;;23.20;72.00;;;;;;5031605;28;20467;-62
2022/09/21 12:11:23;;;;;;;;;;;23.20;71.90;;;;;;5032763;28;19932;-61
2022/09/21 12:14:03;;;;;;;;;;;23.00;71.50;;;;;;5031093;28;19932;-61
2022/09/21 12:16:38;;;;;;;;;;;23.10;71.40;;;;;;5031922;28;19979;-61
2022/09/21 12:19:20;;;;;;;;;;;23.20;71.60;;;;;;5032039;28;19929;-60
2022/09/21 12:21:47;;;;;;;;;;;23.10;71.60;;;;;;5031682;28;19958;-61
2022/09/21 12:24:21;;;;;;;;;;;23.20;73.20;;;;;;5014676;28;20020;-60
2022/09/21 12:26:50;;;;;;;;;;;23.10;71.60;;;;;;5030325;28;20379;-62
2022/09/21 12:29:19;;;;;;;;;;;22.90;72.80;;;;;;5016002;28;19991;-61
2022/09/21 12:32:05;;;;;;;;;;;23.00;72.70;;;;;;5013903;28;20299;-61
2022/09/21 12:34:36;;;;;;;;;;;22.80;72.50;;;;;;5030393;28;19932;-61
2022/09/21 12:37:16;;;;;;;;;;;23.10;72.50;;;;;;5049541;28;19924;-61
2022/09/21 12:39:44;;;;;;;;;;;23.20;70.90;;;;;;5068242;28;19999;-62
2022/09/21 12:42:10;;;;;;;;;;;23.10;72.50;;;;;;5054828;28;19920;-63
2022/09/21 12:44:51;;;;;;;;;;;23.20;72.30;;;;;;5073824;28;20293;-63
2022/09/21 12:47:19;;;;;;;;;;;22.90;71.10;;;;;;5073747;28;19925;-62
2022/09/21 12:49:46;;;;;;;;;;;23.20;72.60;;;;;;5070836;28;19947;-65
2022/09/21 12:52:14;;;;;;;;;;;23.20;72.50;;;;;;5037474;28;19921;-63
2022/09/21 12:54:42;;;;;;;;;;;23.10;71.20;;;;;;5052786;28;19974;-63
2022/09/21 12:57:27;;;;;;;;;;;22.90;71.80;;;;;;5052759;28;20291;-64
2022/09/21 12:59:59;;;;;;;;;;;22.90;70.40;;;;;;5068879;28;19928;-65
2022/09/21 13:02:32;;;;;;;;;;;23.00;71.00;;;;;;5070814;28;19925;-65
2022/09/21 13:05:03;;;;;;;;;;;22.80;72.00;;;;;;5072604;28;19954;-65
2022/09/21 13:07:34;;;;;;;;;;;23.50;70.90;;;;;;5072607;28;19929;-65
2022/09/21 13:09:59;;;;;;;;;;;23.00;71.90;;;;;;5070284;28;19924;-61
2022/09/21 13:12:32;;;;;;;;;;;23.20;72.00;;;;;;5060476;28;19973;-62
2022/09/21 13:15:01;;;;;;;;;;;22.90;70.40;;;;;;5052673;28;20263;-63
2022/09/21 13:17:30;;;;;;;;;;;23.00;72.00;;;;;;5058014;28;20083;-74
2022/09/21 13:20:03;;;;;;;;;;;22.80;70.50;;;;;;5068563;28;20290;-73
2022/09/21 13:22:31;;;;;;;;;;;22.90;70.60;;;;;;5054294;28;19975;-69
2022/09/21 13:25:08;;;;;;;;;;;23.10;72.20;;;;;;5053259;28;19925;-61
2022/09/21 13:27:52;;;;;;;;;;;23.00;72.10;;;;;;5053300;28;20390;-61
2022/09/21 13:30:28;;;;;;;;;;;23.00;70.80;;;;;;5068403;28;20267;-61
2022/09/21 13:32:54;;;;;;;;;;;23.00;72.00;;;;;;5073625;28;20315;-61
2022/09/21 13:35:52;;;;;;;;;;;23.00;72.10;;;;;;5071610;28;19969;-62
2022/09/21 13:38:28;;;;;;;;;;;22.90;70.80;;;;;;5030984;28;19925;-72
2022/09/21 13:40:57;;;;;;;;;;;22.50;70.60;;;;;;5026332;28;19925;-61
2022/09/21 13:43:23;;;;;;;;;;;22.90;69.70;;;;;;5032668;28;19988;-62
2022/09/21 13:45:51;;;;;;;;;;;22.70;70.60;;;;;;5033928;28;19925;-62
2022/09/21 13:48:18;;;;;;;;;;;22.60;71.20;;;;;;5032446;28;19931;-61
2022/09/21 13:50:44;;;;;;;;;;;22.50;71.60;;;;;;5004823;28;19973;-61
2022/09/21 13:53:24;;;;;;;;;;;22.40;71.10;;;;;;5027250;28;19932;-61
2022/09/21 13:55:51;;;;;;;;;;;22.70;70.30;;;;;;5021016;28;19931;-61
2022/09/21 13:58:38;;;;;;;;;;;22.70;71.90;;;;;;5034704;28;20325;-61
2022/09/21 14:01:06;;;;;;;;;;;22.60;70.30;;;;;;5033763;28;19982;-61
2022/09/21 14:03:46;;;;;;;;;;;22.50;71.30;;;;;;5018582;28;19925;-76
2022/09/21 14:06:22;;;;;;;;;;;22.40;70.50;;;;;;5018948;28;19931;-75
2022/09/21 14:08:49;;;;;;;;;;;22.50;70.70;;;;;;5018116;28;19925;-77
2022/09/21 14:11:34;;;;;;;;;;;22.20;71.90;;;;;;5033465;28;20325;-76
2022/09/21 14:14:00;;;;;;;;;;;22.40;70.50;;;;;;5056363;28;19986;-77
2022/09/21 14:16:32;;;;;;;;;;;22.40;71.40;;;;;;5077212;28;19924;-77
2022/09/21 14:18:58;;;;;;;;;;;22.30;70.30;;;;;;5076554;28;19951;-76
2022/09/21 14:21:25;;;;;;;;;;;22.30;72.10;;;;;;5076271;28;19920;-76
2022/09/21 14:24:06;;;;;;;;;;;22.10;71.70;;;;;;5076130;28;19951;-77
2022/09/21 14:26:41;;;;;;;;;;;22.20;70.60;;;;;;5075899;28;20366;-76
2022/09/21 14:29:11;;;;;;;;;;;22.00;70.60;;;;;;5076166;28;20422;-76
2022/09/21 14:31:38;;;;;;;;;;;22.00;71.50;;;;;;5075245;28;19931;-76
2022/09/21 14:34:03;;;;;;;;;;;22.10;72.00;;;;;;5074980;28;19925;-76
2022/09/21 14:36:36;;;;;;;;;;;21.90;71.70;;;;;;5076346;28;20381;-75
2022/09/21 14:39:02;;;;;;;;;;;21.80;70.70;;;;;;5076289;28;19931;-76
2022/09/21 14:41:31;;;;;;;;;;;21.60;71.90;;;;;;5076242;28;19925;-76
2022/09/21 14:43:57;;;;;;;;;;;22.00;71.40;;;;;;5069003;28;19924;-75